Time;durP1;ratioP1;P1;durP2;ratioP2;P2;SDS_P1;SDS_P2;PMS_P1;PMS_P2;Temp;Humidity;BMP_temperature;BMP_pressure;BME280_temperature;BME280_humidity;BME280_pressure;Samples;Min_cycle;Max_cycle;Signal;HPM_P1;HPM_P2
2023/05/26 00:00:15;;;;;;;23.63;2.72;;;;;;;;;;5044947;28;20116;-78
2023/05/26 00:02:44;;;;;;;7.65;1.95;;;;;;;;;;5042531;28;20049;-78
2023/05/26 00:05:20;;;;;;;13.10;2.20;;;;;;;;;;5061225;28;20481;-79
2023/05/26 00:07:48;;;;;;;19.50;2.83;;;;;;;;;;5031602;28;20508;-78
2023/05/26 00:10:16;;;;;;;11.95;2.55;;;;;;;;;;5046104;28;20041;-78
2023/05/26 00:12:48;;;;;;;14.25;2.72;;;;;;;;;;5039770;28;20518;-78
2023/05/26 00:15:16;;;;;;;17.42;2.85;;;;;;;;;;5058305;28;20166;-78
2023/05/26 00:17:47;;;;;;;19.48;2.30;;;;;;;;;;5056543;28;20053;-77
2023/05/26 00:20:14;;;;;;;12.25;2.22;;;;;;;;;;5061380;28;20060;-77
2023/05/26 00:22:44;;;;;;;15.38;2.85;;;;;;;;;;5030477;28;20498;-78
2023/05/26 00:25:16;;;;;;;13.90;2.53;;;;;;;;;;5038700;28;20049;-78
2023/05/26 00:27:44;;;;;;;12.75;2.53;;;;;;;;;;5043317;28;20045;-77
2023/05/26 00:30:12;;;;;;;14.43;2.45;;;;;;;;;;5056658;28;20371;-76
2023/05/26 00:32:46;;;;;;;17.00;2.58;;;;;;;;;;5044230;28;20052;-79
2023/05/26 00:35:13;;;;;;;23.25;3.40;;;;;;;;;;5059134;28;20801;-77
2023/05/26 00:37:47;;;;;;;12.45;2.38;;;;;;;;;;5044024;28;20498;-78
2023/05/26 00:40:15;;;;;;;13.60;2.47;;;;;;;;;;5057438;28;20064;-77
2023/05/26 00:42:45;;;;;;;17.60;2.97;;;;;;;;;;5045417;28;20041;-77
2023/05/26 00:45:17;;;;;;;15.68;2.55;;;;;;;;;;5058005;28;20059;-76
2023/05/26 00:47:45;;;;;;;14.52;2.28;;;;;;;;;;5045085;28;20056;-77
2023/05/26 00:50:13;;;;;;;12.20;2.80;;;;;;;;;;5040302;28;20053;-77
2023/05/26 00:52:42;;;;;;;14.77;2.13;;;;;;;;;;5030016;28;20056;-77
2023/05/26 00:55:11;;;;;;;12.63;2.40;;;;;;;;;;5058983;28;20049;-78
2023/05/26 00:57:44;;;;;;;9.38;1.88;;;;;;;;;;5029916;28;20053;-78
2023/05/26 01:00:13;;;;;;;12.63;2.95;;;;;;;;;;5056870;28;20053;-78
2023/05/26 01:02:44;;;;;;;12.82;2.83;;;;;;;;;;5056475;28;20049;-77
2023/05/26 01:05:15;;;;;;;25.98;3.45;;;;;;;;;;5056837;28;20054;-80
2023/05/26 01:07:43;;;;;;;14.23;2.20;;;;;;;;;;5039683;28;20055;-80
2023/05/26 01:10:12;;;;;;;14.70;2.80;;;;;;;;;;5041184;28;20056;-79
2023/05/26 01:12:49;;;;;;;20.23;3.33;;;;;;;;;;5056056;28;20060;-78
2023/05/26 01:15:22;;;;;;;16.25;2.60;;;;;;;;;;5055516;28;20049;-80
2023/05/26 01:18:03;;;;;;;14.23;2.60;;;;;;;;;;5043058;28;20063;-79
2023/05/26 01:20:31;;;;;;;17.60;2.58;;;;;;;;;;5044253;28;20063;-77
2023/05/26 01:23:18;;;;;;;13.35;2.03;;;;;;;;;;5039073;28;20064;-78
2023/05/26 01:25:56;;;;;;;19.38;2.60;;;;;;;;;;5056245;28;20049;-80
2023/05/26 01:28:23;;;;;;;;;;;;;;;;;;5051241;28;20044;-78
2023/05/26 01:30:55;;;;;;;13.23;3.30;;;;;;;;;;5057739;28;19920;-76
2023/05/26 01:33:27;;;;;;;12.00;2.33;;;;;;;;;;5030442;28;20056;-77
2023/05/26 01:35:55;;;;;;;20.05;3.42;;;;;;;;;;5058311;28;20061;-78
2023/05/26 01:38:23;;;;;;;;;;;;;;;;;;5043142;28;20055;-78
2023/05/26 01:40:53;;;;;;;16.65;2.92;;;;;;;;;;5054529;28;19929;-79
2023/05/26 01:43:29;;;;;;;20.63;3.75;;;;;;;;;;5031706;28;20429;-77
2023/05/26 01:46:00;;;;;;;18.85;3.55;;;;;;;;;;5054269;28;20422;-78
2023/05/26 01:48:35;;;;;;;20.85;3.78;;;;;;;;;;5037197;28;20437;-79
2023/05/26 01:51:08;;;;;;;24.90;4.00;;;;;;;;;;5038109;28;20430;-77
2023/05/26 01:53:38;;;;;;;20.70;3.50;;;;;;;;;;5029723;28;20419;-76
2023/05/26 01:56:07;;;;;;;19.85;4.05;;;;;;;;;;5037670;28;20415;-79
2023/05/26 01:58:40;;;;;;;21.10;3.97;;;;;;;;;;5053515;28;20426;-77
2023/05/26 02:01:11;;;;;;;19.13;3.22;;;;;;;;;;5029250;28;20899;-78
2023/05/26 02:03:39;;;;;;;25.40;4.15;;;;;;;;;;5061792;28;20768;-76
2023/05/26 02:06:12;;;;;;;21.20;4.03;;;;;;;;;;5028833;28;20420;-77
2023/05/26 02:08:45;;;;;;;24.20;3.55;;;;;;;;;;5030763;28;20418;-77
2023/05/26 02:11:13;;;;;;;19.98;2.80;;;;;;;;;;5056082;28;20413;-77
2023/05/26 02:13:41;;;;;;;18.33;3.10;;;;;;;;;;5052961;28;20429;-78
2023/05/26 02:16:13;;;;;;;26.65;3.67;;;;;;;;;;5053979;28;20541;-77
2023/05/26 02:18:46;;;;;;;18.25;3.80;;;;;;;;;;5039588;28;20427;-80
2023/05/26 02:21:19;;;;;;;20.77;3.80;;;;;;;;;;5037677;28;20922;-78
2023/05/26 02:23:47;;;;;;;22.25;3.97;;;;;;;;;;5042729;28;20875;-78
2023/05/26 02:26:21;;;;;;;21.42;3.95;;;;;;;;;;5044663;28;20430;-77
2023/05/26 02:28:50;;;;;;;18.80;3.75;;;;;;;;;;5057503;28;20429;-77
2023/05/26 02:31:25;;;;;;;20.10;3.75;;;;;;;;;;5042611;28;20419;-77
2023/05/26 02:33:57;;;;;;;20.00;3.80;;;;;;;;;;5038257;28;20434;-77
2023/05/26 02:36:25;;;;;;;18.15;3.28;;;;;;;;;;5054023;28;20448;-77
2023/05/26 02:38:53;;;;;;;23.20;3.92;;;;;;;;;;5021442;28;20419;-77
2023/05/26 02:41:22;;;;;;;16.30;3.63;;;;;;;;;;5039156;28;20415;-78
2023/05/26 02:43:50;;;;;;;20.03;3.70;;;;;;;;;;5044962;28;20416;-78
2023/05/26 02:46:25;;;;;;;17.98;3.42;;;;;;;;;;5021331;28;20417;-76
2023/05/26 02:48:53;;;;;;;23.00;3.65;;;;;;;;;;5027540;28;20417;-76
2023/05/26 02:51:21;;;;;;;22.70;3.80;;;;;;;;;;5040878;28;20406;-76
2023/05/26 02:53:53;;;;;;;19.05;3.97;;;;;;;;;;5042977;28;20892;-79
2023/05/26 02:56:21;;;;;;;20.95;3.55;;;;;;;;;;5041387;28;20422;-80
2023/05/26 02:58:49;;;;;;;21.38;3.63;;;;;;;;;;5042351;28;20409;-79
2023/05/26 03:01:24;;;;;;;18.98;4.03;;;;;;;;;;5060397;28;20937;-79
2023/05/26 03:03:53;;;;;;;23.33;4.45;;;;;;;;;;5054125;28;20445;-80
2023/05/26 03:06:22;;;;;;;23.65;3.75;;;;;;;;;;5057772;28;20415;-78
2023/05/26 03:08:50;;;;;;;17.13;3.47;;;;;;;;;;5042697;28;20422;-77
2023/05/26 03:11:18;;;;;;;17.02;3.55;;;;;;;;;;5046195;28;20409;-78
2023/05/26 03:13:45;;;;;;;26.52;4.15;;;;;;;;;;5056845;28;20419;-78
2023/05/26 03:16:14;;;;;;;21.92;3.88;;;;;;;;;;5045012;28;20434;-77
2023/05/26 03:18:42;;;;;;;17.45;3.55;;;;;;;;;;5052055;28;20438;-77
2023/05/26 03:21:11;;;;;;;23.02;4.10;;;;;;;;;;5040597;28;20891;-77
2023/05/26 03:23:44;;;;;;;20.05;3.70;;;;;;;;;;5031332;28;20434;-76
2023/05/26 03:26:13;;;;;;;20.73;3.83;;;;;;;;;;5055992;28;20910;-79
2023/05/26 03:28:41;;;;;;;17.57;3.30;;;;;;;;;;5045048;28;20920;-79
2023/05/26 03:31:09;;;;;;;21.45;3.90;;;;;;;;;;5055519;28;20438;-77
2023/05/26 03:33:37;;;;;;;18.58;3.50;;;;;;;;;;5060212;28;20410;-77
2023/05/26 03:36:06;;;;;;;19.98;3.63;;;;;;;;;;5060475;28;20445;-78
2023/05/26 03:38:40;;;;;;;18.67;4.00;;;;;;;;;;5042130;28;20419;-78
2023/05/26 03:41:08;;;;;;;22.88;3.80;;;;;;;;;;5029741;28;20421;-79
2023/05/26 03:43:47;;;;;;;24.02;3.72;;;;;;;;;;5058868;28;21161;-78
2023/05/26 03:46:21;;;;;;;20.25;3.90;;;;;;;;;;5038761;28;20425;-77
2023/05/26 03:48:49;;;;;;;24.00;3.90;;;;;;;;;;5057726;28;20419;-77
2023/05/26 03:51:17;;;;;;;20.92;3.60;;;;;;;;;;5055574;28;20425;-77
2023/05/26 03:53:47;;;;;;;18.25;3.50;;;;;;;;;;5056777;28;20414;-77
2023/05/26 03:56:15;;;;;;;22.70;3.40;;;;;;;;;;5039402;28;21116;-76
2023/05/26 03:58:44;;;;;;;23.27;3.85;;;;;;;;;;5055606;28;20432;-79
2023/05/26 04:01:19;;;;;;;24.45;4.13;;;;;;;;;;5058556;28;20430;-77
2023/05/26 04:03:47;;;;;;;25.30;3.85;;;;;;;;;;5040758;28;20426;-78
2023/05/26 04:06:15;;;;;;;22.15;4.13;;;;;;;;;;5023990;28;20417;-77
2023/05/26 04:08:42;;;;;;;25.65;4.20;;;;;;;;;;5057639;28;20433;-78
2023/05/26 04:11:12;;;;;;;25.80;4.32;;;;;;;;;;5056806;28;20427;-77
2023/05/26 04:13:40;;;;;;;22.52;4.03;;;;;;;;;;5054891;28;20776;-78
2023/05/26 04:16:08;;;;;;;23.73;3.50;;;;;;;;;;5038132;28;20889;-79
2023/05/26 04:18:37;;;;;;;24.60;4.25;;;;;;;;;;5043139;28;20432;-79
2023/05/26 04:21:05;;;;;;;24.88;4.00;;;;;;;;;;5061060;28;20425;-79
2023/05/26 04:23:33;;;;;;;23.08;3.90;;;;;;;;;;5023522;28;20425;-79
2023/05/26 04:26:06;;;;;;;21.90;4.28;;;;;;;;;;5056598;28;20418;-79
2023/05/26 04:28:56;;;;;;;24.85;4.38;;;;;;;;;;5045916;28;20409;-78
2023/05/26 04:31:41;;;;;;;20.90;4.00;;;;;;;;;;5056268;28;20447;-78
2023/05/26 04:34:28;;;;;;;26.95;4.28;;;;;;;;;;5059376;28;20764;-77
2023/05/26 04:37:03;;;;;;;23.10;4.07;;;;;;;;;;5046272;28;20410;-79
2023/05/26 04:39:36;;;;;;;24.70;4.05;;;;;;;;;;5041544;28;20414;-78
2023/05/26 04:42:04;;;;;;;20.70;3.72;;;;;;;;;;5054486;28;20427;-78
2023/05/26 04:44:36;;;;;;;30.75;4.43;;;;;;;;;;5057170;28;20432;-79
2023/05/26 04:47:09;;;;;;;23.00;4.07;;;;;;;;;;5041162;28;20421;-77
2023/05/26 04:49:38;;;;;;;25.80;4.45;;;;;;;;;;5059641;28;20422;-76
2023/05/26 04:52:05;;;;;;;23.90;4.43;;;;;;;;;;5054516;28;20434;-79
2023/05/26 04:54:40;;;;;;;22.75;3.95;;;;;;;;;;5057019;28;21240;-77
2023/05/26 04:57:13;;;;;;;25.95;4.25;;;;;;;;;;5030015;28;20423;-80
2023/05/26 04:59:49;;;;;;;24.25;4.30;;;;;;;;;;5056919;28;20417;-79
2023/05/26 05:02:18;;;;;;;28.00;4.28;;;;;;;;;;5056084;28;20436;-80
2023/05/26 05:04:56;;;;;;;26.00;3.60;;;;;;;;;;5044029;28;20433;-77
2023/05/26 05:07:30;;;;;;;22.88;4.13;;;;;;;;;;5040389;28;20432;-77
2023/05/26 05:09:58;;;;;;;23.67;4.20;;;;;;;;;;5056150;28;20542;-77
2023/05/26 05:12:28;;;;;;;21.95;3.88;;;;;;;;;;5050846;28;20421;-78
2023/05/26 05:14:57;;;;;;;19.20;3.47;;;;;;;;;;5056470;28;20052;-78
2023/05/26 05:17:31;;;;;;;12.63;2.80;;;;;;;;;;5029469;28;20053;-78
2023/05/26 05:20:04;;;;;;;23.98;3.65;;;;;;;;;;5043359;28;20067;-79
2023/05/26 05:22:32;;;;;;;19.95;3.22;;;;;;;;;;5055020;28;20060;-77
2023/05/26 05:25:06;;;;;;;14.13;3.03;;;;;;;;;;5042583;28;20394;-79
2023/05/26 05:27:33;;;;;;;17.13;3.08;;;;;;;;;;5059387;28;20045;-78
2023/05/26 05:30:09;;;;;;;16.90;2.47;;;;;;;;;;5054875;28;20049;-77
2023/05/26 05:32:38;;;;;;;13.70;2.88;;;;;;;;;;5052309;28;20041;-78
2023/05/26 05:35:06;;;;;;;17.10;2.50;;;;;;;;;;5057751;28;20559;-77
2023/05/26 05:37:39;;;;;;;13.75;2.63;;;;;;;;;;5059406;28;20040;-78
2023/05/26 05:40:07;;;;;;;15.55;2.20;;;;;;;;;;5056014;28;20060;-77
2023/05/26 05:42:40;;;;;;;9.77;1.67;;;;;;;;;;5058710;28;20040;-80
2023/05/26 05:45:10;;;;;;;9.48;2.83;;;;;;;;;;5056111;28;20064;-77
2023/05/26 05:48:10;;;;;;;11.73;2.60;;;;;;;;;;5051723;28;20406;-78
2023/05/26 05:50:49;;;;;;;11.98;2.90;;;;;;;;;;5058355;28;20041;-79
2023/05/26 05:53:16;;;;;;;13.10;2.83;;;;;;;;;;5043404;28;20060;-80
2023/05/26 05:55:49;;;;;;;19.55;3.35;;;;;;;;;;5059154;28;20060;-76
2023/05/26 05:58:19;;;;;;;13.60;2.88;;;;;;;;;;5040055;28;20053;-79
2023/05/26 06:00:53;;;;;;;13.98;2.63;;;;;;;;;;5052741;28;20053;-76
2023/05/26 06:03:27;;;;;;;17.73;2.55;;;;;;;;;;5050665;28;20128;-78
2023/05/26 06:05:54;;;;;;;10.07;2.08;;;;;;;;;;5042508;28;20041;-76
2023/05/26 06:08:22;;;;;;;24.00;3.17;;;;;;;;;;5059907;28;20497;-79
2023/05/26 06:10:51;;;;;;;16.17;2.47;;;;;;;;;;5030237;28;20048;-78
2023/05/26 06:13:24;;;;;;;20.85;3.42;;;;;;;;;;5055279;28;20041;-78
2023/05/26 06:15:58;;;;;;;23.80;3.60;;;;;;;;;;5049298;28;20427;-77
2023/05/26 06:18:26;;;;;;;21.75;4.10;;;;;;;;;;5037456;28;20446;-77
2023/05/26 06:20:59;;;;;;;23.33;4.43;;;;;;;;;;5028022;28;20429;-76
2023/05/26 06:23:32;;;;;;;22.38;4.18;;;;;;;;;;5033501;28;20436;-76
2023/05/26 06:26:00;;;;;;;22.98;4.30;;;;;;;;;;5018488;28;20440;-78
2023/05/26 06:28:34;;;;;;;20.88;3.90;;;;;;;;;;5053576;28;20449;-78
2023/05/26 06:31:04;;;;;;;18.67;4.15;;;;;;;;;;5052390;28;20426;-78
2023/05/26 06:33:57;;;;;;;22.45;4.10;;;;;;;;;;5037856;28;20487;-76
2023/05/26 06:36:25;;;;;;;24.38;4.43;;;;;;;;;;5057248;28;20428;-77
2023/05/26 06:38:59;;;;;;;21.77;3.95;;;;;;;;;;5040062;28;20437;-79
2023/05/26 06:41:34;;;;;;;24.40;3.87;;;;;;;;;;5056974;28;20421;-79
2023/05/26 06:44:07;;;;;;;21.80;3.88;;;;;;;;;;5027433;28;20425;-77
2023/05/26 06:46:41;;;;;;;23.65;3.83;;;;;;;;;;5057098;28;20440;-76
2023/05/26 06:49:09;;;;;;;20.15;3.83;;;;;;;;;;5054902;28;20434;-79
2023/05/26 06:51:46;;;;;;;21.27;3.40;;;;;;;;;;5040502;28;20438;-80
2023/05/26 06:54:19;;;;;;;22.33;3.53;;;;;;;;;;5038705;28;20905;-76
2023/05/26 06:56:52;;;;;;;20.75;3.85;;;;;;;;;;5027585;28;20435;-79
2023/05/26 06:59:22;;;;;;;21.52;4.00;;;;;;;;;;5031010;28;20431;-78
2023/05/26 07:01:56;;;;;;;19.85;3.67;;;;;;;;;;5052315;28;20441;-78
2023/05/26 07:04:24;;;;;;;23.23;3.97;;;;;;;;;;5057546;28;20934;-78
2023/05/26 07:06:57;;;;;;;18.10;3.80;;;;;;;;;;5044201;28;20433;-78
2023/05/26 07:09:25;;;;;;;22.25;3.60;;;;;;;;;;5055296;28;20909;-77
2023/05/26 07:11:54;;;;;;;24.70;3.97;;;;;;;;;;5055680;28;20437;-77
2023/05/26 07:14:56;;;;;;;22.45;3.70;;;;;;;;;;5050218;28;20436;-76
2023/05/26 07:17:32;;;;;;;17.00;3.13;;;;;;;;;;5020818;28;20440;-83
2023/05/26 07:20:00;;;;;;;21.48;3.83;;;;;;;;;;5039797;28;20440;-80
2023/05/26 07:22:27;;;;;;;18.20;4.03;;;;;;;;;;5006152;28;20425;-78
2023/05/26 07:25:06;;;;;;;20.30;3.85;;;;;;;;;;5043854;28;20434;-81
2023/05/26 07:27:45;;;;;;;20.05;3.50;;;;;;;;;;5011523;28;22422;-79
2023/05/26 07:30:13;;;;;;;19.17;3.60;;;;;;;;;;5036621;28;20430;-79
2023/05/26 07:32:56;;;;;;;22.02;3.95;;;;;;;;;;5035998;28;20433;-82
2023/05/26 07:35:29;;;;;;;18.92;3.80;;;;;;;;;;5004183;28;20441;-80
2023/05/26 07:37:57;;;;;;;15.73;2.88;;;;;;;;;;5003892;28;21034;-81
2023/05/26 07:40:25;;;;;;;20.40;3.60;;;;;;;;;;5028471;28;20417;-81
2023/05/26 07:42:53;;;;;;;19.40;3.13;;;;;;;;;;5008875;28;21091;-81
2023/05/26 07:45:20;;;;;;;18.50;3.38;;;;;;;;;;5023056;28;20421;-82
2023/05/26 07:47:48;;;;;;;22.20;3.75;;;;;;;;;;5018483;28;21352;-81
2023/05/26 07:50:22;;;;;;;18.42;3.38;;;;;;;;;;5020574;28;20440;-81
2023/05/26 07:52:50;;;;;;;15.98;4.55;;;;;;;;;;5044932;28;20433;-81
2023/05/26 07:55:18;;;;;;;17.25;3.55;;;;;;;;;;5005414;28;20449;-81
2023/05/26 07:57:46;;;;;;;16.27;3.63;;;;;;;;;;5024684;28;20436;-80
2023/05/26 08:00:14;;;;;;;23.10;5.55;;;;;;;;;;5019647;28;20425;-81
2023/05/26 08:02:47;;;;;;;26.05;9.10;;;;;;;;;;5020435;28;20430;-81
2023/05/26 08:05:15;;;;;;;20.98;5.40;;;;;;;;;;5023318;28;20416;-81
2023/05/26 08:07:49;;;;;;;20.10;4.20;;;;;;;;;;5005600;28;20429;-81
2023/05/26 08:10:17;;;;;;;22.95;6.38;;;;;;;;;;5004510;28;20441;-80
2023/05/26 08:12:50;;;;;;;15.70;4.03;;;;;;;;;;5023729;28;20466;-81
2023/05/26 08:15:24;;;;;;;16.08;3.65;;;;;;;;;;5006658;28;20488;-82
2023/05/26 08:17:52;;;;;;;18.98;3.63;;;;;;;;;;5020107;28;20429;-79
2023/05/26 08:20:20;;;;;;;22.63;4.85;;;;;;;;;;5022148;28;21126;-82
2023/05/26 08:22:49;;;;;;;16.00;3.60;;;;;;;;;;5020238;28;20441;-82
2023/05/26 08:25:17;;;;;;;22.55;4.20;;;;;;;;;;5038548;28;20441;-80
2023/05/26 08:27:45;;;;;;;19.05;4.38;;;;;;;;;;5022849;28;20417;-81
2023/05/26 08:30:13;;;;;;;27.65;9.15;;;;;;;;;;5037198;28;20444;-81
2023/05/26 08:32:46;;;;;;;16.98;4.15;;;;;;;;;;5038204;28;20468;-82
2023/05/26 08:35:18;;;;;;;18.10;4.73;;;;;;;;;;5018898;28;20425;-81
2023/05/26 08:37:53;;;;;;;17.10;3.53;;;;;;;;;;5020488;28;20559;-82
2023/05/26 08:40:26;;;;;;;15.95;3.22;;;;;;;;;;5004860;28;20426;-81
2023/05/26 08:42:56;;;;;;;18.58;3.65;;;;;;;;;;5021254;28;20787;-80
2023/05/26 08:45:29;;;;;;;17.13;3.58;;;;;;;;;;5009871;28;20437;-81
2023/05/26 08:47:59;;;;;;;13.00;3.45;;;;;;;;;;5022048;28;21626;-82
2023/05/26 08:50:30;;;;;;;16.33;3.05;;;;;;;;;;5029883;28;20428;-80
2023/05/26 08:53:00;;;;;;;12.60;3.20;;;;;;;;;;5035949;28;20444;-80
2023/05/26 08:55:33;;;;;;;17.85;3.53;;;;;;;;;;5023698;28;20424;-80
2023/05/26 08:58:01;;;;;;;18.00;3.60;;;;;;;;;;5026306;28;20447;-80
2023/05/26 09:00:34;;;;;;;15.00;3.33;;;;;;;;;;5018745;28;20425;-81
2023/05/26 09:03:02;;;;;;;17.65;3.90;;;;;;;;;;5005681;28;21242;-82
2023/05/26 09:05:35;;;;;;;15.27;3.20;;;;;;;;;;5003384;28;20433;-82
2023/05/26 09:08:12;;;;;;;11.63;2.97;;;;;;;;;;5007672;28;20439;-82
2023/05/26 09:10:45;;;;;;;18.92;4.68;;;;;;;;;;5033722;28;20432;-82
2023/05/26 09:13:13;;;;;;;16.95;3.63;;;;;;;;;;5019512;28;20417;-83
2023/05/26 09:15:50;;;;;;;15.18;2.92;;;;;;;;;;5020520;28;20917;-81
2023/05/26 09:18:23;;;;;;;11.63;2.93;;;;;;;;;;5040316;28;20504;-82
2023/05/26 09:20:51;;;;;;;14.73;3.17;;;;;;;;;;5021172;28;20437;-83
2023/05/26 09:23:21;;;;;;;16.53;2.87;;;;;;;;;;5003742;28;20441;-82
2023/05/26 09:25:50;;;;;;;12.82;3.13;;;;;;;;;;5033749;28;20430;-81
2023/05/26 09:28:20;;;;;;;13.30;2.85;;;;;;;;;;5022174;28;20421;-82
2023/05/26 09:30:52;;;;;;;15.07;2.97;;;;;;;;;;5019709;28;20433;-82
2023/05/26 09:33:25;;;;;;;14.27;3.30;;;;;;;;;;5019751;28;20429;-83
2023/05/26 09:35:53;;;;;;;15.13;2.38;;;;;;;;;;5024018;28;20041;-81
2023/05/26 09:38:23;;;;;;;10.32;2.42;;;;;;;;;;5026063;28;20053;-85
2023/05/26 09:40:55;;;;;;;11.73;2.53;;;;;;;;;;4999322;28;20662;-81
2023/05/26 09:43:28;;;;;;;10.60;2.38;;;;;;;;;;5037701;28;20068;-81
2023/05/26 09:45:56;;;;;;;8.30;2.10;;;;;;;;;;5016340;28;20532;-81
2023/05/26 09:48:33;;;;;;;14.52;3.10;;;;;;;;;;5014817;28;20057;-80
2023/05/26 09:51:05;;;;;;;16.95;2.70;;;;;;;;;;5039462;28;20057;-81
2023/05/26 09:53:35;;;;;;;12.93;2.92;;;;;;;;;;5007417;28;20466;-82
2023/05/26 09:56:07;;;;;;;10.60;2.40;;;;;;;;;;5006851;28;20672;-81
2023/05/26 09:58:40;;;;;;;;;;;;;;;;;;5024732;28;20063;-82
2023/05/26 10:01:08;;;;;;;;;;;;;;;;;;5000553;28;19929;-81
2023/05/26 10:03:40;;;;;;;8.50;2.30;;;;;;;;;;5021294;28;20317;-82
2023/05/26 10:06:08;;;;;;;8.18;2.50;;;;;;;;;;5002225;28;20492;-82
2023/05/26 10:08:44;;;;;;;12.90;2.33;;;;;;;;;;5007326;28;20057;-82
2023/05/26 10:11:12;;;;;;;;;;;;;;;;;;5012641;28;20595;-82
2023/05/26 10:13:39;;;;;;;;;;;;;;;;;;5008810;28;20448;-82
2023/05/26 10:16:07;;;;;;;14.88;2.78;;;;;;;;;;5022019;28;19935;-82
2023/05/26 10:18:35;;;;;;;11.07;2.75;;;;;;;;;;5022450;28;20779;-80
2023/05/26 10:21:10;;;;;;;17.50;2.83;;;;;;;;;;5020475;28;20053;-83
2023/05/26 10:23:47;;;;;;;9.93;2.10;;;;;;;;;;5025848;28;20049;-83
2023/05/26 10:26:22;;;;;;;10.50;2.42;;;;;;;;;;5029089;28;20045;-80
2023/05/26 10:28:53;;;;;;;12.85;2.28;;;;;;;;;;5038259;28;20520;-82
2023/05/26 10:31:30;;;;;;;9.07;2.20;;;;;;;;;;5021485;28;20729;-80
2023/05/26 10:33:58;;;;;;;7.85;2.08;;;;;;;;;;5038807;28;20064;-82
2023/05/26 10:36:34;;;;;;;12.50;2.47;;;;;;;;;;5038942;28;20060;-81
2023/05/26 10:39:11;;;;;;;11.90;2.38;;;;;;;;;;5037806;28;20077;-81
2023/05/26 10:41:40;;;;;;;15.23;2.53;;;;;;;;;;5039973;28;20065;-81
2023/05/26 10:44:34;;;;;;;8.73;1.92;;;;;;;;;;5024700;28;20128;-81
2023/05/26 10:47:03;;;;;;;10.73;2.65;;;;;;;;;;5027781;28;20050;-83
2023/05/26 10:49:34;;;;;;;11.65;2.42;;;;;;;;;;5016119;28;20068;-80
2023/05/26 10:52:10;;;;;;;8.55;2.28;;;;;;;;;;5019272;28;20591;-83
2023/05/26 10:54:44;;;;;;;16.70;2.53;;;;;;;;;;5020619;28;20056;-81
2023/05/26 10:57:27;;;;;;;9.70;2.47;;;;;;;;;;5013622;28;20052;-82
2023/05/26 10:59:55;;;;;;;9.57;2.60;;;;;;;;;;5020005;28;20557;-83
2023/05/26 11:02:27;;;;;;;11.70;2.58;;;;;;;;;;5010929;28;20060;-82
2023/05/26 11:05:02;;;;;;;9.70;2.08;;;;;;;;;;5001958;28;20080;-83
2023/05/26 11:07:35;;;;;;;13.98;3.17;;;;;;;;;;5016872;28;20660;-81
2023/05/26 11:10:05;;;;;;;12.40;2.50;;;;;;;;;;5036125;28;20759;-81
2023/05/26 11:12:54;;;;;;;11.45;2.90;;;;;;;;;;5025598;28;20464;-81
2023/05/26 11:15:26;;;;;;;10.77;2.53;;;;;;;;;;5023059;28;20049;-82
2023/05/26 11:18:01;;;;;;;9.50;2.38;;;;;;;;;;5000366;28;20049;-82
2023/05/26 11:20:28;;;;;;;;;;;;;;;;;;5029146;28;20044;-81
2023/05/26 11:22:56;;;;;;;;;;;;;;;;;;5021725;28;19936;-82
2023/05/26 11:25:30;;;;;;;10.10;2.15;;;;;;;;;;5028745;28;20297;-81
2023/05/26 11:28:06;;;;;;;11.68;2.63;;;;;;;;;;5007419;28;21776;-84
2023/05/26 11:30:34;;;;;;;13.40;2.75;;;;;;;;;;5039228;28;20068;-82
2023/05/26 11:33:12;;;;;;;11.55;2.42;;;;;;;;;;5020643;28;20061;-81
2023/05/26 11:35:44;;;;;;;13.25;2.35;;;;;;;;;;5042076;28;20574;-82
2023/05/26 11:38:19;;;;;;;13.50;3.00;;;;;;;;;;5008536;28;20063;-81
2023/05/26 11:40:53;;;;;;;11.95;2.33;;;;;;;;;;5019678;28;20059;-80
2023/05/26 11:43:23;;;;;;;18.75;2.70;;;;;;;;;;5000801;28;20728;-80
2023/05/26 11:45:52;;;;;;;10.63;2.30;;;;;;;;;;5028818;28;20052;-82
2023/05/26 11:48:20;;;;;;;14.27;3.08;;;;;;;;;;5004667;28;20048;-81
2023/05/26 11:50:48;;;;;;;11.20;2.63;;;;;;;;;;5002562;28;20067;-82
2023/05/26 11:53:21;;;;;;;13.63;3.30;;;;;;;;;;5040387;28;20061;-81
2023/05/26 11:56:02;;;;;;;10.13;3.10;;;;;;;;;;5007111;28;20064;-81
2023/05/26 11:58:36;;;;;;;10.00;2.65;;;;;;;;;;5035255;28;20056;-81
2023/05/26 12:01:09;;;;;;;11.57;2.60;;;;;;;;;;5001961;28;20063;-82
2023/05/26 12:03:49;;;;;;;10.05;3.00;;;;;;;;;;5033636;28;20757;-81
2023/05/26 12:06:22;;;;;;;12.70;2.95;;;;;;;;;;5038727;28;20151;-82
2023/05/26 12:08:56;;;;;;;10.27;2.67;;;;;;;;;;5011185;28;20064;-82
2023/05/26 12:11:34;;;;;;;9.85;2.60;;;;;;;;;;5021024;28;20914;-81
2023/05/26 12:14:04;;;;;;;9.50;2.90;;;;;;;;;;5023726;28;20053;-81
2023/05/26 12:16:32;;;;;;;14.00;3.40;;;;;;;;;;5016979;28;20053;-81
2023/05/26 12:19:06;;;;;;;11.07;2.47;;;;;;;;;;5001999;28;20050;-81
2023/05/26 12:21:40;;;;;;;10.32;2.95;;;;;;;;;;5006994;28;20068;-82
2023/05/26 12:24:07;;;;;;;11.65;2.70;;;;;;;;;;5015768;28;20417;-82
2023/05/26 12:26:37;;;;;;;12.68;2.85;;;;;;;;;;5023171;28;20076;-81
2023/05/26 12:29:04;;;;;;;;;;;;;;;;;;5021276;28;20048;-82
2023/05/26 12:31:32;;;;;;;;;;;;;;;;;;5000921;28;19951;-83
2023/05/26 12:34:00;;;;;;;9.60;2.55;;;;;;;;;;5019011;28;19990;-81
2023/05/26 12:36:28;;;;;;;7.88;2.70;;;;;;;;;;5017854;28;20590;-83
2023/05/26 12:39:01;;;;;;;10.63;2.83;;;;;;;;;;5006199;28;20061;-81
2023/05/26 12:41:36;;;;;;;13.27;3.03;;;;;;;;;;5038709;28;20053;-82
2023/05/26 12:44:05;;;;;;;11.70;3.15;;;;;;;;;;5041758;28;20414;-80
2023/05/26 12:46:38;;;;;;;14.20;3.67;;;;;;;;;;5023756;28;20041;-81
2023/05/26 12:49:07;;;;;;;13.88;3.42;;;;;;;;;;5031241;28;20057;-82
2023/05/26 12:51:41;;;;;;;19.00;3.53;;;;;;;;;;4983246;28;20064;-81
2023/05/26 12:54:13;;;;;;;11.85;3.47;;;;;;;;;;5004852;28;20756;-82
2023/05/26 12:56:46;;;;;;;13.50;3.13;;;;;;;;;;5026918;28;20060;-81
2023/05/26 12:59:16;;;;;;;13.35;2.90;;;;;;;;;;5018756;28;20045;-82
2023/05/26 13:01:44;;;;;;;13.75;3.55;;;;;;;;;;5037599;28;20694;-83
2023/05/26 13:04:17;;;;;;;12.13;3.13;;;;;;;;;;5024203;28;20057;-81
2023/05/26 13:06:47;;;;;;;12.85;3.58;;;;;;;;;;5032359;28;20049;-80
2023/05/26 13:09:15;;;;;;;12.43;3.80;;;;;;;;;;5001255;28;20084;-81
2023/05/26 13:11:48;;;;;;;16.52;3.67;;;;;;;;;;5025429;28;20056;-82
2023/05/26 13:14:22;;;;;;;14.85;3.45;;;;;;;;;;5004866;28;20060;-82
2023/05/26 13:16:55;;;;;;;15.07;3.45;;;;;;;;;;5000954;28;20268;-82
2023/05/26 13:19:29;;;;;;;17.70;3.65;;;;;;;;;;5019389;28;20061;-82
2023/05/26 13:21:56;;;;;;;11.10;3.08;;;;;;;;;;5038033;28;20057;-82
2023/05/26 13:24:24;;;;;;;17.15;3.75;;;;;;;;;;5038713;28;20073;-83
2023/05/26 13:26:52;;;;;;;13.75;3.28;;;;;;;;;;5008488;28;20064;-81
2023/05/26 13:29:20;;;;;;;11.85;3.28;;;;;;;;;;5001371;28;20068;-83
2023/05/26 13:31:50;;;;;;;13.63;3.60;;;;;;;;;;5023716;28;20048;-81
2023/05/26 13:34:17;;;;;;;10.35;3.13;;;;;;;;;;5015852;28;20060;-81
2023/05/26 13:36:45;;;;;;;12.23;3.40;;;;;;;;;;5003924;28;20061;-81
2023/05/26 13:39:13;;;;;;;12.10;2.97;;;;;;;;;;5008174;28;20049;-81
2023/05/26 13:41:46;;;;;;;13.77;3.28;;;;;;;;;;5021458;28;20053;-81
2023/05/26 13:44:14;;;;;;;12.63;2.97;;;;;;;;;;5023517;28;20049;-82
2023/05/26 13:46:42;;;;;;;9.55;2.95;;;;;;;;;;5040515;28;20502;-82
2023/05/26 13:49:11;;;;;;;12.13;3.58;;;;;;;;;;5034714;28;20053;-83
2023/05/26 13:51:44;;;;;;;11.60;3.03;;;;;;;;;;5018716;28;20057;-82
2023/05/26 13:54:13;;;;;;;15.95;4.47;;;;;;;;;;5003461;28;20721;-81
2023/05/26 13:56:41;;;;;;;11.23;2.85;;;;;;;;;;5031222;28;20076;-82
2023/05/26 13:59:14;;;;;;;11.82;2.95;;;;;;;;;;4999099;28;20061;-82
2023/05/26 14:01:42;;;;;;;13.20;2.95;;;;;;;;;;5037610;28;20707;-81
2023/05/26 14:04:16;;;;;;;13.45;2.85;;;;;;;;;;5010538;28;20175;-81
2023/05/26 14:06:45;;;;;;;13.45;2.88;;;;;;;;;;5032354;28;20049;-82
2023/05/26 14:09:18;;;;;;;10.00;2.50;;;;;;;;;;5008317;28;20683;-81
2023/05/26 14:11:51;;;;;;;8.25;2.33;;;;;;;;;;5000510;28;20053;-82
2023/05/26 14:14:23;;;;;;;11.95;2.75;;;;;;;;;;5002656;28;20060;-81
2023/05/26 14:16:52;;;;;;;7.22;2.42;;;;;;;;;;5002386;28;20053;-81
2023/05/26 14:19:26;;;;;;;9.52;2.72;;;;;;;;;;5039555;28;20053;-80
2023/05/26 14:21:59;;;;;;;7.57;2.28;;;;;;;;;;5003132;28;20053;-82
2023/05/26 14:24:31;;;;;;;11.35;2.53;;;;;;;;;;5011051;28;20053;-80
2023/05/26 14:26:59;;;;;;;8.57;2.60;;;;;;;;;;5049908;28;20057;-83
2023/05/26 14:29:27;;;;;;;12.90;2.95;;;;;;;;;;5019298;28;20057;-81
2023/05/26 14:32:00;;;;;;;10.65;2.65;;;;;;;;;;5019252;28;20045;-80
2023/05/26 14:34:34;;;;;;;9.52;2.38;;;;;;;;;;5051524;28;20065;-80
2023/05/26 14:37:02;;;;;;;8.02;2.45;;;;;;;;;;5054304;28;20049;-81
2023/05/26 14:39:35;;;;;;;9.85;2.65;;;;;;;;;;5020462;28;20038;-81
2023/05/26 14:42:08;;;;;;;10.07;2.65;;;;;;;;;;5021767;28;20053;-81
2023/05/26 14:44:36;;;;;;;9.43;2.40;;;;;;;;;;5048440;28;20064;-82
2023/05/26 14:47:09;;;;;;;11.40;2.97;;;;;;;;;;5020458;28;20038;-81
2023/05/26 14:49:38;;;;;;;14.68;3.20;;;;;;;;;;5052015;28;20057;-82
2023/05/26 14:52:11;;;;;;;;;;;;;;;;;;5025649;28;20054;-81
2023/05/26 14:54:44;;;;;;;;;;;;;;;;;;5021222;28;20343;-81
2023/05/26 14:57:16;;;;;;;;;;;;;;;;;;5021262;28;19929;-82
2023/05/26 14:59:44;;;;;;;;;;;;;;;;;;5023422;28;19921;-84